Time;durP1;ratioP1;P1;durP2;ratioP2;P2;SDS_P1;SDS_P2;PMS_P1;PMS_P2;Temp;Humidity;BMP_temperature;BMP_pressure;BME280_temperature;BME280_humidity;BME280_pressure;Samples;Min_cycle;Max_cycle;Signal;HPM_P1;HPM_P2
2022/10/03 00:02:38;;;;;;;3.60;2.08;;;11.50;99.90;;;;;;4897866;29;20072;-75
2022/10/03 00:05:13;;;;;;;4.10;1.90;;;11.50;99.90;;;;;;4912567;29;20472;-75
2022/10/03 00:08:03;;;;;;;7.00;3.78;;;11.50;99.90;;;;;;4912499;29;20519;-74
2022/10/03 00:11:04;;;;;;;5.40;2.88;;;11.50;99.90;;;;;;4912118;29;20088;-74
2022/10/03 00:13:39;;;;;;;3.60;2.17;;;11.50;99.90;;;;;;4912166;29;20028;-75
2022/10/03 00:16:13;;;;;;;6.18;2.92;;;11.50;99.90;;;;;;4896060;29;20036;-75
2022/10/03 00:18:54;;;;;;;5.47;3.08;;;11.50;99.90;;;;;;4941506;29;20043;-75
2022/10/03 00:21:44;;;;;;;5.03;2.10;;;11.50;99.90;;;;;;4952827;28;20055;-75
2022/10/03 00:24:18;;;;;;;4.22;2.65;;;11.50;99.90;;;;;;4952481;28;20097;-75
2022/10/03 00:26:57;;;;;;;5.47;3.22;;;11.40;99.90;;;;;;4952886;28;20499;-75
2022/10/03 00:29:37;;;;;;;3.42;2.20;;;11.40;99.90;;;;;;4951585;28;20377;-75
2022/10/03 00:32:41;;;;;;;3.25;1.95;;;11.40;99.90;;;;;;4952545;28;20090;-75
2022/10/03 00:35:41;;;;;;;4.93;2.28;;;11.40;99.90;;;;;;4952749;28;20038;-76
2022/10/03 00:38:29;;;;;;;5.78;2.45;;;11.50;99.90;;;;;;4952784;28;20035;-75
2022/10/03 00:41:42;;;;;;;6.65;3.60;;;11.40;99.90;;;;;;4952658;28;20049;-75
2022/10/03 00:44:33;;;;;;;4.03;1.95;;;11.50;99.90;;;;;;4951142;29;20078;-75
2022/10/03 00:47:31;;;;;;;6.57;2.42;;;11.40;99.90;;;;;;4952684;28;20065;-75
2022/10/03 00:50:52;;;;;;;4.80;2.47;;;11.40;99.90;;;;;;4936279;29;20369;-75
2022/10/03 00:53:42;;;;;;;4.15;2.22;;;11.40;99.90;;;;;;4874223;29;20033;-75
2022/10/03 00:56:48;;;;;;;4.45;2.50;;;11.40;99.90;;;;;;4952550;28;20566;-75
2022/10/03 00:59:47;;;;;;;4.57;2.28;;;11.40;99.90;;;;;;4952617;28;20042;-75
2022/10/03 01:02:30;;;;;;;7.75;3.00;;;11.40;99.90;;;;;;4953088;28;20487;-75
2022/10/03 01:05:15;;;;;;;2.97;2.17;;;11.40;99.90;;;;;;4954766;28;20038;-76
2022/10/03 01:08:53;;;;;;;8.60;3.45;;;11.30;99.90;;;;;;4967525;28;20083;-76
2022/10/03 01:12:00;;;;;;;5.57;2.38;;;11.30;99.90;;;;;;4973345;23;20055;-67
2022/10/03 01:15:09;;;;;;;3.08;2.03;;;11.30;99.90;;;;;;4974992;28;20088;-68
2022/10/03 01:17:58;;;;;;;10.45;3.13;;;11.20;99.90;;;;;;4989775;28;20049;-67
2022/10/03 01:20:44;;;;;;;8.07;3.90;;;11.20;99.90;;;;;;5010382;28;20091;-66
2022/10/03 01:23:37;;;;;;;6.03;3.08;;;11.10;99.90;;;;;;5020816;28;20049;-67
2022/10/03 01:26:41;;;;;;;4.78;3.05;;;11.00;99.90;;;;;;4990767;28;20093;-67
2022/10/03 01:32:29;;;;;;;5.35;2.65;;;10.90;99.90;;;;;;5005073;28;20474;-68
2022/10/03 01:35:25;;;;;;;4.07;2.53;;;10.80;99.90;;;;;;4994210;28;20121;-68
2022/10/03 01:38:18;;;;;;;4.60;3.20;;;10.80;99.90;;;;;;4994241;28;20078;-68
2022/10/03 01:41:08;;;;;;;6.82;3.15;;;10.70;99.90;;;;;;5002455;28;20057;-68
2022/10/03 01:43:48;;;;;;;5.18;3.03;;;10.70;99.90;;;;;;5027862;28;20067;-68
2022/10/03 01:46:38;;;;;;;4.53;2.40;;;10.70;99.90;;;;;;5028392;28;20030;-68
2022/10/03 01:49:28;;;;;;;4.35;2.40;;;10.60;99.90;;;;;;5028982;28;20061;-67
2022/10/03 01:52:10;;;;;;;4.03;2.15;;;10.60;99.90;;;;;;5013272;28;20061;-68
2022/10/03 01:54:43;;;;;;;4.25;2.03;;;10.50;99.90;;;;;;5028071;28;20124;-68
2022/10/03 01:57:28;;;;;;;5.57;2.95;;;10.50;99.90;;;;;;5013491;28;20034;-68
2022/10/03 02:00:11;;;;;;;12.85;3.42;;;10.40;99.90;;;;;;5027031;28;20041;-68
2022/10/03 02:02:51;;;;;;;6.15;3.45;;;10.50;99.90;;;;;;5012971;28;20471;-67
2022/10/03 02:05:54;;;;;;;5.13;3.17;;;10.50;99.90;;;;;;5012003;28;20402;-67
2022/10/03 02:08:56;;;;;;;5.72;2.38;;;10.50;99.90;;;;;;5013223;28;20041;-69
2022/10/03 02:11:50;;;;;;;4.10;2.75;;;10.50;99.90;;;;;;5013153;28;20034;-68
2022/10/03 02:14:50;;;;;;;7.00;3.00;;;10.50;99.90;;;;;;5009356;28;20022;-68
2022/10/03 02:17:27;;;;;;;3.83;2.50;;;10.50;99.90;;;;;;5007398;28;20041;-68
2022/10/03 02:20:13;;;;;;;5.07;3.30;;;10.40;99.90;;;;;;4993316;28;20087;-68
2022/10/03 02:22:43;;;;;;;3.97;2.28;;;10.30;99.90;;;;;;5007873;28;20506;-67
2022/10/03 02:25:40;;;;;;;11.60;2.60;;;10.30;99.90;;;;;;5008229;28;20038;-68
2022/10/03 02:28:45;;;;;;;7.53;2.33;;;10.20;99.90;;;;;;4991534;28;20347;-68
2022/10/03 02:32:33;;;;;;;6.45;1.90;;;10.10;99.90;;;;;;4993508;28;20046;-67
2022/10/03 02:35:27;;;;;;;3.55;1.85;;;10.00;99.90;;;;;;4992792;28;20104;-68
2022/10/03 02:38:23;;;;;;;2.75;2.08;;;9.90;99.90;;;;;;4993050;28;20541;-68
2022/10/03 02:41:22;;;;;;;5.72;2.42;;;9.90;99.90;;;;;;5006678;28;20053;-68
2022/10/03 02:44:34;;;;;;;4.50;2.67;;;9.90;99.90;;;;;;4992596;28;20034;-68
2022/10/03 02:47:48;;;;;;;3.53;2.08;;;9.90;99.90;;;;;;4997151;28;20042;-68
2022/10/03 02:50:57;;;;;;;4.57;2.17;;;10.00;99.90;;;;;;5007170;28;20029;-67
2022/10/03 02:54:24;;;;;;;4.82;2.10;;;10.00;99.90;;;;;;4992421;28;20042;-67
2022/10/03 02:57:30;;;;;;;6.57;3.75;;;9.90;99.90;;;;;;4990105;28;20092;-68
2022/10/03 03:00:05;;;;;;;4.72;2.30;;;10.00;99.90;;;;;;4974047;28;20080;-68
2022/10/03 03:03:30;;;;;;;3.00;2.40;;;9.90;99.90;;;;;;4989718;28;20050;-68
2022/10/03 03:06:36;;;;;;;4.20;2.15;;;9.90;99.90;;;;;;4990021;28;20034;-69
2022/10/03 03:09:29;;;;;;;5.38;3.03;;;9.90;99.90;;;;;;4990029;28;20081;-68
2022/10/03 03:12:54;;;;;;;3.47;1.80;;;9.80;99.90;;;;;;4989793;28;20069;-68
2022/10/03 03:15:45;;;;;;;2.92;1.90;;;9.60;99.90;;;;;;4973780;28;20047;-68
2022/10/03 03:18:52;;;;;;;3.40;2.55;;;9.50;99.90;;;;;;4973785;28;20038;-68
2022/10/03 03:22:03;;;;;;;4.88;2.03;;;9.40;99.90;;;;;;4976183;28;20538;-68
2022/10/03 03:24:45;;;;;;;3.95;2.22;;;9.30;99.90;;;;;;4958507;28;20046;-68
2022/10/03 03:27:20;;;;;;;3.67;2.20;;;9.30;99.90;;;;;;4996990;28;20517;-68
2022/10/03 03:30:19;;;;;;;5.18;2.25;;;9.40;99.90;;;;;;5026826;28;20040;-68
2022/10/03 03:33:15;;;;;;;4.25;2.35;;;9.40;99.90;;;;;;4993693;28;20046;-67
2022/10/03 03:36:08;;;;;;;7.25;2.75;;;9.40;99.90;;;;;;5011818;28;20045;-68
2022/10/03 03:39:12;;;;;;;3.90;2.47;;;9.50;99.90;;;;;;5025693;28;20103;-68
2022/10/03 03:42:11;;;;;;;3.67;2.30;;;9.50;99.90;;;;;;5010394;28;20103;-68
2022/10/03 03:45:03;;;;;;;4.40;1.95;;;9.50;99.90;;;;;;5011230;28;20061;-68
2022/10/03 03:48:11;;;;;;;3.85;2.33;;;9.50;99.90;;;;;;5026614;28;20025;-68
2022/10/03 03:50:58;;;;;;;4.88;2.35;;;9.40;99.90;;;;;;5024043;28;20507;-68
2022/10/03 03:54:08;;;;;;;3.42;2.53;;;9.40;99.90;;;;;;5010781;28;20041;-68
2022/10/03 03:57:27;;;;;;;4.57;2.67;;;9.40;99.90;;;;;;5024363;28;20034;-68
2022/10/03 04:00:38;;;;;;;8.75;2.80;;;9.20;99.90;;;;;;5023693;28;20030;-68
2022/10/03 04:03:37;;;;;;;3.60;2.08;;;9.20;99.90;;;;;;5023612;28;20041;-67
2022/10/03 04:06:45;;;;;;;3.03;1.70;;;9.20;99.90;;;;;;5010167;28;20034;-68
2022/10/03 04:09:30;;;;;;;3.80;2.47;;;9.20;99.90;;;;;;5009593;28;20041;-67
2022/10/03 04:12:15;;;;;;;2.78;1.52;;;9.20;99.90;;;;;;5025540;28;20113;-68
2022/10/03 04:15:03;;;;;;;2.08;1.42;;;9.20;99.90;;;;;;5017738;28;20026;-67
2022/10/03 04:21:43;;;;;;;2.83;2.08;;;9.20;99.90;;;;;;5003194;28;20030;-68
2022/10/03 04:24:26;;;;;;;8.20;3.88;;;9.20;99.90;;;;;;4990620;28;20585;-68
2022/10/03 04:27:10;;;;;;;4.25;2.53;;;9.30;99.90;;;;;;4991441;28;20093;-67
2022/10/03 04:29:46;;;;;;;4.35;2.28;;;9.30;99.90;;;;;;4991389;28;20039;-67
2022/10/03 04:33:06;;;;;;;4.13;2.20;;;9.20;99.90;;;;;;4991186;28;20034;-68
2022/10/03 04:36:22;;;;;;;7.43;3.05;;;9.20;99.90;;;;;;4991002;28;20081;-67
2022/10/03 04:39:17;;;;;;;5.47;2.47;;;9.20;99.90;;;;;;4991260;28;20397;-67
2022/10/03 04:42:09;;;;;;;3.60;2.63;;;9.30;99.90;;;;;;5003858;28;20042;-67
2022/10/03 04:45:00;;;;;;;13.50;2.50;;;9.20;99.90;;;;;;4989826;28;20510;-67
2022/10/03 04:47:38;;;;;;;5.03;1.70;;;9.20;99.90;;;;;;5004598;28;20113;-67
2022/10/03 04:50:30;;;;;;;3.58;1.60;;;9.20;99.90;;;;;;5005729;28;20502;-68
2022/10/03 04:53:22;;;;;;;3.72;2.10;;;9.10;99.90;;;;;;4990726;28;20034;-68
2022/10/03 04:56:32;;;;;;;3.60;2.65;;;9.00;99.90;;;;;;5005307;28;20382;-68
2022/10/03 04:59:41;;;;;;;2.63;1.80;;;9.00;99.90;;;;;;4989799;28;20073;-68
2022/10/03 05:02:24;;;;;;;4.85;1.98;;;8.90;99.90;;;;;;5005363;28;20037;-68
2022/10/03 05:05:03;;;;;;;6.38;2.83;;;8.90;99.90;;;;;;4994727;28;20238;-67
2022/10/03 05:07:47;;;;;;;3.17;2.17;;;8.90;99.90;;;;;;5008927;28;20471;-67
2022/10/03 05:10:53;;;;;;;6.38;2.67;;;8.90;99.90;;;;;;5008617;28;20034;-67
2022/10/03 05:13:43;;;;;;;3.78;2.08;;;8.90;99.90;;;;;;4994714;28;20493;-68
2022/10/03 05:16:42;;;;;;;5.93;2.67;;;8.90;99.90;;;;;;5013482;28;20038;-67
2022/10/03 05:19:52;;;;;;;4.47;2.20;;;8.80;99.90;;;;;;5028901;28;20030;-67
2022/10/03 05:22:55;;;;;;;5.97;2.70;;;8.80;99.90;;;;;;5013801;28;20038;-67
2022/10/03 05:25:52;;;;;;;5.88;2.95;;;8.70;99.90;;;;;;5013931;28;20144;-68
2022/10/03 05:28:29;;;;;;;4.20;2.80;;;8.60;99.90;;;;;;5028802;28;20030;-67
2022/10/03 05:32:00;;;;;;;7.10;3.97;;;8.60;99.90;;;;;;5013936;28;20371;-67
2022/10/03 05:34:37;;;;;;;10.57;4.15;;;8.50;99.90;;;;;;5012203;28;20033;-68
2022/10/03 05:37:46;;;;;;;5.05;3.45;;;8.50;99.90;;;;;;5013972;28;20490;-68
2022/10/03 05:40:23;;;;;;;4.32;2.90;;;8.40;99.90;;;;;;5029282;28;20037;-67
2022/10/03 05:42:59;;;;;;;3.35;1.85;;;8.40;99.90;;;;;;5028815;28;20076;-67
2022/10/03 05:45:42;;;;;;;7.50;3.42;;;8.40;99.90;;;;;;5013675;28;20065;-74
2022/10/03 05:48:19;;;;;;;4.35;2.40;;;8.20;99.90;;;;;;5027310;28;20022;-70
2022/10/03 05:51:19;;;;;;;5.03;2.78;;;8.20;99.90;;;;;;5013387;28;20053;-71
2022/10/03 05:54:03;;;;;;;10.70;5.10;;;8.20;99.90;;;;;;5013283;28;20061;-72
2022/10/03 05:57:12;;;;;;;17.00;8.07;;;8.40;99.90;;;;;;5013281;28;20084;-74
2022/10/03 06:00:09;;;;;;;14.30;3.92;;;8.70;99.90;;;;;;5013519;28;20065;-72
2022/10/03 06:03:35;;;;;;;5.43;3.30;;;8.70;99.90;;;;;;4995789;28;20035;-71
2022/10/03 06:06:41;;;;;;;6.82;4.25;;;8.60;99.90;;;;;;4987973;28;20112;-71
2022/10/03 06:09:44;;;;;;;4.65;3.13;;;8.60;99.90;;;;;;4992771;28;20517;-70
2022/10/03 06:12:18;;;;;;;9.52;4.57;;;8.60;99.90;;;;;;4992542;28;20076;-70
2022/10/03 06:15:13;;;;;;;10.23;5.07;;;8.70;99.90;;;;;;4943668;28;20035;-70
2022/10/03 06:18:26;;;;;;;4.30;2.70;;;8.70;99.90;;;;;;4973064;28;20090;-70
2022/10/03 06:21:11;;;;;;;4.72;3.60;;;8.60;99.90;;;;;;4973591;28;20134;-70
2022/10/03 06:24:29;;;;;;;5.68;2.75;;;8.60;99.90;;;;;;4972183;28;20034;-70
2022/10/03 06:27:57;;;;;;;9.07;4.57;;;8.60;99.90;;;;;;4972465;28;20035;-70
2022/10/03 06:30:52;;;;;;;7.63;3.72;;;8.70;99.90;;;;;;4972371;28;20026;-70
2022/10/03 06:33:37;;;;;;;5.07;3.72;;;8.70;99.90;;;;;;4986801;28;20090;-70
2022/10/03 06:37:00;;;;;;;7.70;3.95;;;8.80;99.90;;;;;;4972420;28;20053;-70
2022/10/03 06:40:11;;;;;;;5.93;3.45;;;8.80;99.90;;;;;;4972339;28;20035;-70
2022/10/03 06:43:00;;;;;;;5.07;3.25;;;8.80;99.90;;;;;;4973372;28;20814;-70
2022/10/03 06:46:11;;;;;;;8.45;4.53;;;9.00;99.90;;;;;;4973510;28;20062;-71
2022/10/03 06:49:10;;;;;;;5.78;3.38;;;9.00;99.90;;;;;;4954310;28;20047;-69
2022/10/03 06:52:25;;;;;;;6.85;3.53;;;9.00;99.90;;;;;;4959974;28;20109;-70
2022/10/03 06:55:06;;;;;;;8.25;3.45;;;9.10;99.90;;;;;;4969796;28;20077;-71
2022/10/03 06:58:12;;;;;;;6.35;4.13;;;9.20;99.90;;;;;;4973181;28;20038;-70
2022/10/03 07:00:59;;;;;;;13.15;4.40;;;9.20;99.90;;;;;;4972260;28;20037;-72
2022/10/03 07:04:23;;;;;;;13.07;4.18;;;9.30;99.90;;;;;;4972787;28;20038;-70
2022/10/03 07:07:35;;;;;;;12.88;3.65;;;9.40;99.90;;;;;;4958919;28;20042;-72
2022/10/03 07:10:29;;;;;;;5.75;4.03;;;9.40;99.90;;;;;;4987542;23;20061;-79
2022/10/03 07:13:19;;;;;;;10.43;5.03;;;9.50;99.90;;;;;;4981502;28;20038;-75
2022/10/03 07:16:32;;;;;;;7.67;4.77;;;9.50;99.90;;;;;;4992576;28;20121;-73
2022/10/03 07:19:37;;;;;;;5.63;3.15;;;9.60;99.90;;;;;;4991299;28;20026;-73
2022/10/03 07:22:27;;;;;;;7.60;4.45;;;9.80;99.90;;;;;;5009364;28;20121;-74
2022/10/03 07:25:24;;;;;;;10.38;3.83;;;9.80;99.90;;;;;;5011683;28;20034;-76
2022/10/03 07:28:39;;;;;;;7.63;4.53;;;10.00;99.90;;;;;;5011448;28;20148;-76
2022/10/03 07:31:19;;;;;;;6.38;3.90;;;10.10;99.90;;;;;;5011805;28;20040;-75
2022/10/03 07:34:13;;;;;;;5.43;3.17;;;10.20;99.90;;;;;;5007354;28;20034;-74
2022/10/03 07:40:43;;;;;;;11.50;4.60;;;10.40;99.90;;;;;;4991812;28;20046;-78
2022/10/03 07:43:53;;;;;;;6.35;4.10;;;10.50;99.90;;;;;;4991477;28;20056;-81
2022/10/03 07:47:12;;;;;;;13.43;5.03;;;10.70;99.90;;;;;;4963344;28;20514;-78
2022/10/03 07:50:22;;;;;;;9.60;3.45;;;10.70;99.90;;;;;;4985923;28;20042;-80
2022/10/03 07:53:48;;;;;;;7.95;4.32;;;10.80;99.90;;;;;;4994993;28;20033;-80
2022/10/03 07:56:41;;;;;;;9.32;4.43;;;10.80;99.90;;;;;;5010960;28;20037;-79
2022/10/03 07:59:44;;;;;;;8.00;4.10;;;10.90;99.90;;;;;;5010540;28;20084;-79
2022/10/03 08:02:27;;;;;;;8.80;5.13;;;11.00;99.90;;;;;;4998400;28;20734;-78
2022/10/03 08:05:20;;;;;;;12.02;6.15;;;11.10;99.90;;;;;;4991168;28;20046;-78
2022/10/03 08:08:30;;;;;;;14.23;7.53;;;11.10;99.90;;;;;;4991219;28;20043;-78
2022/10/03 08:11:27;;;;;;;29.25;11.30;;;11.20;99.90;;;;;;4989852;28;20034;-76
2022/10/03 08:14:19;;;;;;;10.40;5.93;;;11.30;99.90;;;;;;4990786;28;20080;-79
2022/10/03 08:17:13;;;;;;;17.70;6.10;;;11.40;99.90;;;;;;4990974;28;20042;-76
2022/10/03 08:20:06;;;;;;;11.57;4.40;;;11.50;99.90;;;;;;4989834;28;20117;-76
2022/10/03 08:22:54;;;;;;;18.13;6.93;;;11.60;99.90;;;;;;5002043;28;20038;-77
2022/10/03 08:26:12;;;;;;;14.13;5.93;;;11.80;99.90;;;;;;5010716;28;20042;-80
2022/10/03 08:29:20;;;;;;;14.90;5.68;;;11.90;99.90;;;;;;5010190;28;20057;-79
2022/10/03 08:32:21;;;;;;;9.15;3.90;;;12.00;99.90;;;;;;5010624;28;20367;-78
2022/10/03 08:35:33;;;;;;;13.45;6.15;;;12.10;99.90;;;;;;5009086;28;20062;-79
2022/10/03 08:38:47;;;;;;;10.85;4.75;;;12.10;99.90;;;;;;5011903;28;20508;-80
2022/10/03 08:41:35;;;;;;;16.98;6.65;;;12.30;99.90;;;;;;4987366;28;20129;-78
2022/10/03 08:44:53;;;;;;;12.63;5.72;;;12.30;99.90;;;;;;4975132;28;20039;-78
2022/10/03 08:47:45;;;;;;;19.25;5.28;;;12.50;99.90;;;;;;4975280;28;20122;-79
2022/10/03 08:50:31;;;;;;;13.55;5.25;;;12.60;99.90;;;;;;4989307;28;20037;-78
2022/10/03 08:53:54;;;;;;;18.08;5.47;;;12.60;99.90;;;;;;4996793;28;20042;-77
2022/10/03 08:56:45;;;;;;;13.15;4.97;;;12.90;99.90;;;;;;4994492;28;20117;-77
2022/10/03 08:59:56;;;;;;;11.07;4.97;;;13.00;99.90;;;;;;4993278;28;20435;-79
2022/10/03 09:03:08;;;;;;;14.50;5.20;;;13.10;99.90;;;;;;4994511;28;20490;-79
2022/10/03 09:06:11;;;;;;;10.43;4.90;;;13.30;99.90;;;;;;4994122;28;20045;-77
2022/10/03 09:09:00;;;;;;;13.15;4.55;;;13.20;99.90;;;;;;4992920;28;20145;-80
2022/10/03 09:11:45;;;;;;;8.55;4.18;;;13.20;99.90;;;;;;4994221;28;20034;-78
2022/10/03 09:14:40;;;;;;;14.73;5.63;;;13.10;99.90;;;;;;4994021;28;20116;-77
2022/10/03 09:17:52;;;;;;;13.20;5.40;;;13.20;99.90;;;;;;4987591;28;20030;-78
2022/10/03 09:20:48;;;;;;;12.48;4.10;;;13.20;99.90;;;;;;4992878;28;20113;-78
2022/10/03 09:23:17;;;;;;;11.65;4.18;;;13.30;99.90;;;;;;5011526;28;20028;-77
2022/10/03 09:25:52;;;;;;;13.65;5.93;;;13.20;99.90;;;;;;5017469;28;20030;-81
2022/10/03 09:28:58;;;;;;;13.07;4.63;;;13.20;99.90;;;;;;5013531;28;20018;-77
2022/10/03 09:32:30;;;;;;;19.08;5.57;;;13.60;99.90;;;;;;5014413;28;20033;-77
2022/10/03 09:35:53;;;;;;;9.60;4.28;;;13.50;99.90;;;;;;4971751;28;20027;-76
2022/10/03 09:38:52;;;;;;;7.82;3.50;;;13.90;99.90;;;;;;5013111;28;20022;-76
2022/10/03 09:41:31;;;;;;;6.93;3.17;;;14.10;99.90;;;;;;4974340;28;20509;-75
2022/10/03 09:44:16;;;;;;;10.35;3.75;;;14.40;99.90;;;;;;4973679;28;20046;-75
2022/10/03 09:47:21;;;;;;;12.35;3.45;;;14.40;99.90;;;;;;4989588;28;20034;-75
2022/10/03 09:50:28;;;;;;;5.55;2.85;;;14.70;99.90;;;;;;4974570;28;20042;-74
2022/10/03 09:53:33;;;;;;;9.60;2.55;;;14.90;99.90;;;;;;5003623;28;20040;-75
2022/10/03 09:56:36;;;;;;;6.00;2.70;;;14.90;99.90;;;;;;5001444;28;20068;-74
2022/10/03 09:59:24;;;;;;;5.13;2.08;;;15.30;99.90;;;;;;5013451;28;20041;-74
2022/10/03 10:02:23;;;;;;;6.15;1.85;;;15.60;99.90;;;;;;5012208;28;20065;-75
2022/10/03 10:05:15;;;;;;;7.68;1.70;;;15.80;99.90;;;;;;5002959;28;20034;-78
2022/10/03 10:08:07;;;;;;;7.53;2.13;;;16.00;99.90;;;;;;4989727;28;20058;-79
2022/10/03 10:11:15;;;;;;;8.40;2.70;;;16.10;99.90;;;;;;4992219;28;20033;-74
2022/10/03 10:14:20;;;;;;;3.38;1.17;;;16.10;99.90;;;;;;4991961;28;20027;-76
2022/10/03 10:17:10;;;;;;;8.82;1.58;;;15.60;99.90;;;;;;4994018;28;20425;-76
2022/10/03 10:20:15;;;;;;;11.40;2.72;;;15.60;99.90;;;;;;4990620;28;20093;-76
2022/10/03 10:23:20;;;;;;;7.82;1.55;;;16.10;99.90;;;;;;5005038;28;20034;-76
2022/10/03 10:26:32;;;;;;;2.72;1.42;;;15.90;99.90;;;;;;5007635;28;20046;-76
2022/10/03 10:29:44;;;;;;;15.02;5.65;;;16.40;99.90;;;;;;5011392;28;20041;-76
2022/10/03 10:33:07;;;;;;;3.17;1.63;;;16.60;99.90;;;;;;5010158;28;20579;-76
2022/10/03 10:36:37;;;;;;;4.60;1.95;;;17.00;99.90;;;;;;5011413;28;20034;-76
2022/10/03 10:39:47;;;;;;;4.00;1.48;;;17.40;99.90;;;;;;5012504;28;20121;-77
2022/10/03 10:42:30;;;;;;;3.30;1.50;;;17.90;99.90;;;;;;5012738;28;20109;-76
2022/10/03 10:45:13;;;;;;;4.25;2.08;;;18.00;99.90;;;;;;5010772;28;20385;-77
2022/10/03 10:48:35;;;;;;;2.20;1.40;;;17.80;99.90;;;;;;4991470;28;20041;-76
2022/10/03 10:52:10;;;;;;;7.93;1.48;;;17.10;99.90;;;;;;4982554;28;20043;-76
2022/10/03 10:55:16;;;;;;;8.13;1.50;;;16.90;99.90;;;;;;4979259;28;20077;-76
2022/10/03 10:58:32;;;;;;;3.50;1.30;;;17.00;99.90;;;;;;4990438;28;20042;-76
2022/10/03 11:01:56;;;;;;;4.75;1.55;;;16.60;99.90;;;;;;4991403;28;20045;-76
2022/10/03 11:04:59;;;;;;;5.57;1.45;;;17.30;99.90;;;;;;5011998;28;20034;-71
2022/10/03 11:08:10;;;;;;;3.95;1.00;;;17.50;99.90;;;;;;5012288;28;20049;-70
2022/10/03 11:10:51;;;;;;;6.03;0.95;;;17.70;99.90;;;;;;5011427;28;20028;-70
2022/10/03 11:13:47;;;;;;;3.60;0.98;;;19.00;99.90;;;;;;4998755;28;20062;-69
2022/10/03 11:17:10;;;;;;;12.82;1.42;;;19.20;99.90;;;;;;4992505;28;20394;-70
2022/10/03 11:20:15;;;;;;;7.03;0.93;;;19.70;99.90;;;;;;4991486;28;20380;-69
2022/10/03 11:23:16;;;;;;;5.18;0.70;;;19.10;99.90;;;;;;5003856;28;20096;-70
2022/10/03 11:26:23;;;;;;;6.00;1.80;;;18.00;99.90;;;;;;5010702;28;20038;-72
2022/10/03 11:29:56;;;;;;;3.63;0.82;;;17.60;99.90;;;;;;5006049;28;20549;-70
2022/10/03 11:33:24;;;;;;;6.55;0.80;;;17.60;99.90;;;;;;5009846;28;20124;-70
2022/10/03 11:36:12;;;;;;;6.10;1.52;;;17.70;99.90;;;;;;5010569;28;20030;-69
2022/10/03 11:39:10;;;;;;;1.10;0.85;;;17.00;99.90;;;;;;5010271;28;20041;-69
2022/10/03 11:42:10;;;;;;;5.78;1.33;;;17.00;99.90;;;;;;5011504;28;20038;-69
2022/10/03 11:45:01;;;;;;;5.53;1.10;;;17.30;99.90;;;;;;5010031;28;20120;-70
2022/10/03 11:47:51;;;;;;;6.67;1.60;;;17.30;99.90;;;;;;5010466;28;20898;-70
2022/10/03 11:51:01;;;;;;;1.42;0.88;;;17.40;99.90;;;;;;5010002;28;20128;-71
2022/10/03 11:53:48;;;;;;;8.40;1.10;;;17.20;99.90;;;;;;5009768;28;20044;-77
2022/10/03 11:56:33;;;;;;;8.82;1.45;;;17.10;99.90;;;;;;5011128;28;20505;-74
2022/10/03 11:59:38;;;;;;;0.93;0.80;;;16.90;99.90;;;;;;5010136;28;20037;-75
2022/10/03 12:02:31;;;;;;;4.50;0.55;;;16.90;99.90;;;;;;4972338;28;20031;-78
2022/10/03 12:05:47;;;;;;;1.65;0.98;;;17.10;99.90;;;;;;4972072;28;20037;-77
2022/10/03 12:11:31;;;;;;;2.97;0.93;;;17.10;99.90;;;;;;4971739;28;20556;-76
2022/10/03 12:14:18;;;;;;;0.75;0.50;;;17.10;99.90;;;;;;4970255;28;20100;-77
2022/10/03 12:17:11;;;;;;;2.85;0.90;;;17.40;99.90;;;;;;4970764;28;20502;-77
2022/10/03 12:19:55;;;;;;;3.60;1.10;;;17.50;99.90;;;;;;4970861;28;20046;-77
2022/10/03 12:22:29;;;;;;;5.60;0.98;;;17.90;99.90;;;;;;4991857;28;20034;-76
2022/10/03 12:25:13;;;;;;;3.70;1.13;;;18.40;99.90;;;;;;5010708;28;20058;-76
2022/10/03 12:28:00;;;;;;;1.48;0.85;;;19.30;99.90;;;;;;5009906;28;20034;-76
2022/10/03 12:30:55;;;;;;;6.70;1.00;;;18.90;99.90;;;;;;5009780;28;20440;-76
2022/10/03 12:34:04;;;;;;;4.88;0.73;;;20.80;99.90;;;;;;5009366;28;20433;-76
2022/10/03 12:36:52;;;;;;;4.63;0.70;;;21.80;97.60;;;;;;5009768;28;20030;-77
2022/10/03 12:39:43;;;;;;;1.63;0.95;;;22.00;96.40;;;;;;5010772;28;20037;-76
2022/10/03 12:42:30;;;;;;;1.20;0.75;;;21.90;95.30;;;;;;5000787;28;20026;-74
2022/10/03 12:45:08;;;;;;;1.67;0.75;;;20.10;98.10;;;;;;4991100;28;20034;-76
2022/10/03 12:48:18;;;;;;;8.50;0.93;;;20.20;96.00;;;;;;4989060;28;20114;-77
2022/10/03 12:50:53;;;;;;;2.33;0.50;;;21.00;97.00;;;;;;4989755;28;20816;-75
2022/10/03 12:53:50;;;;;;;3.58;1.05;;;20.80;95.70;;;;;;5007619;28;20030;-77
2022/10/03 12:56:31;;;;;;;2.38;0.88;;;20.30;95.60;;;;;;5009299;28;20025;-78
2022/10/03 12:59:34;;;;;;;7.40;1.50;;;21.30;97.50;;;;;;5009732;28;20030;-77
2022/10/03 13:02:22;;;;;;;2.33;0.70;;;21.20;94.70;;;;;;5001271;28;20042;-76
2022/10/03 13:05:21;;;;;;;5.22;0.70;;;20.70;95.90;;;;;;4993259;28;20041;-74
2022/10/03 13:08:10;;;;;;;7.25;1.20;;;20.40;95.60;;;;;;4987712;28;20061;-52
2022/10/03 13:10:42;;;;;;;4.07;1.45;;;20.80;99.10;;;;;;4989406;28;20037;-67
2022/10/03 13:14:05;;;;;;;3.45;0.57;;;22.40;99.10;;;;;;4989280;28;20122;-72
2022/10/03 13:17:03;;;;;;;5.32;1.13;;;22.20;95.00;;;;;;4991049;28;20037;-75
2022/10/03 13:19:57;;;;;;;6.47;1.35;;;21.50;95.50;;;;;;4989284;28;20441;-73
2022/10/03 13:22:50;;;;;;;2.22;1.00;;;20.70;96.80;;;;;;4991240;23;20062;-74
2022/10/03 13:25:30;;;;;;;2.08;0.57;;;20.70;96.60;;;;;;4973539;28;20034;-72
2022/10/03 13:28:45;;;;;;;3.35;0.88;;;19.70;96.70;;;;;;4974106;28;20046;-72
2022/10/03 13:31:27;;;;;;;2.47;0.77;;;19.60;98.40;;;;;;4972747;28;20210;-72
2022/10/03 13:34:06;;;;;;;4.97;1.23;;;19.70;97.80;;;;;;4957799;28;20038;-71
2022/10/03 13:36:43;;;;;;;1.65;0.80;;;19.50;98.90;;;;;;4974963;28;20031;-71
2022/10/03 13:39:18;;;;;;;3.65;1.27;;;19.10;98.60;;;;;;4973807;28;20046;-72
2022/10/03 13:42:36;;;;;;;3.55;0.90;;;19.20;99.10;;;;;;4974710;28;20039;-71
2022/10/03 13:45:26;;;;;;;3.33;1.05;;;19.20;99.90;;;;;;4974586;28;20582;-71
2022/10/03 13:48:10;;;;;;;6.00;1.20;;;19.20;99.90;;;;;;4973751;28;20034;-72
2022/10/03 13:50:52;;;;;;;3.15;1.02;;;18.70;99.90;;;;;;4973342;28;20450;-72
2022/10/03 13:54:01;;;;;;;4.85;1.20;;;19.00;99.90;;;;;;4992317;28;20022;-72
2022/10/03 13:56:45;;;;;;;1.38;0.80;;;19.40;99.80;;;;;;4993903;28;20763;-72
2022/10/03 13:59:46;;;;;;;1.73;0.60;;;20.20;98.40;;;;;;4994007;28;20730;-72
2022/10/03 14:03:06;;;;;;;2.70;0.50;;;21.90;95.70;;;;;;4971692;28;20065;-72
2022/10/03 14:05:53;;;;;;;0.82;0.70;;;21.60;95.40;;;;;;4984728;28;20047;-73
2022/10/03 14:08:43;;;;;;;2.42;0.90;;;22.50;92.20;;;;;;4993719;28;20129;-72
2022/10/03 14:11:34;;;;;;;1.87;0.80;;;22.90;92.80;;;;;;4980591;28;20109;-72
2022/10/03 14:14:33;;;;;;;4.53;0.63;;;23.10;91.30;;;;;;4953695;28;20063;-76
2022/10/03 14:17:18;;;;;;;6.28;0.40;;;22.80;90.00;;;;;;4960787;28;20374;-74
2022/10/03 14:20:21;;;;;;;2.95;0.85;;;23.00;90.50;;;;;;4988271;28;21150;-73
2022/10/03 14:23:27;;;;;;;1.45;0.85;;;24.20;89.30;;;;;;4984195;28;20055;-72
2022/10/03 14:26:05;;;;;;;1.25;0.73;;;22.40;90.70;;;;;;4972123;28;20051;-74
2022/10/03 14:28:48;;;;;;;3.78;0.88;;;21.10;92.40;;;;;;4987752;28;20038;-74
2022/10/03 14:31:35;;;;;;;5.63;1.33;;;22.00;90.80;;;;;;4972887;28;20042;-73
2022/10/03 14:34:35;;;;;;;7.82;0.63;;;22.70;91.20;;;;;;4972854;28;20058;-74
2022/10/03 14:37:45;;;;;;;4.33;0.70;;;22.30;90.00;;;;;;4968471;28;20043;-74
2022/10/03 14:40:39;;;;;;;2.30;1.30;;;22.90;89.10;;;;;;4960659;28;20030;-75
2022/10/03 14:43:42;;;;;;;3.45;0.73;;;22.90;88.30;;;;;;4970749;28;20081;-75
2022/10/03 14:46:09;;;;;;;4.57;0.70;;;23.00;87.30;;;;;;4972825;28;20035;-74
2022/10/03 14:48:39;;;;;;;4.28;1.10;;;23.10;89.90;;;;;;4980921;28;20579;-74
2022/10/03 14:51:17;;;;;;;4.88;0.90;;;22.60;88.10;;;;;;4953930;28;20117;-75
2022/10/03 14:54:41;;;;;;;3.58;0.70;;;21.70;90.20;;;;;;4997351;28;20059;-73
2022/10/03 14:57:45;;;;;;;2.42;0.80;;;20.40;91.70;;;;;;4921913;29;20090;-72
2022/10/03 15:00:26;;;;;;;7.28;0.98;;;20.70;92.80;;;;;;4952352;29;20109;-73
2022/10/03 15:02:53;;;;;;;1.73;0.85;;;21.30;91.90;;;;;;4952017;29;20081;-73
2022/10/03 15:05:34;;;;;;;2.83;1.25;;;22.30;90.80;;;;;;4956852;28;20031;-75
2022/10/03 15:08:04;;;;;;;;;;;20.90;90.40;;;;;;4972798;28;20491;-75
2022/10/03 15:10:31;;;;;;;0.60;0.50;;;20.70;92.80;;;;;;4967478;28;19949;-75
2022/10/03 15:13:10;;;;;;;6.40;1.27;;;21.60;91.80;;;;;;4951694;28;20541;-75
2022/10/03 15:15:40;;;;;;;3.67;0.90;;;22.60;90.40;;;;;;4952100;28;20028;-77
2022/10/03 15:18:13;;;;;;;5.22;1.20;;;22.90;90.80;;;;;;4952164;29;20031;-76
2022/10/03 15:20:41;;;;;;;2.60;0.63;;;22.70;90.30;;;;;;4970877;28;20061;-76
2022/10/03 15:23:22;;;;;;;4.72;1.52;;;23.00;88.80;;;;;;5003237;28;20034;-76
2022/10/03 15:25:52;;;;;;;2.38;1.00;;;21.90;91.00;;;;;;5007157;28;20030;-76
2022/10/03 15:28:18;;;;;;;;;;;22.10;90.60;;;;;;5006973;28;20030;-75
2022/10/03 15:30:45;;;;;;;5.90;0.60;;;21.40;91.10;;;;;;4991671;28;20460;-74
2022/10/03 15:33:25;;;;;;;5.07;0.85;;;21.10;92.00;;;;;;4988482;28;20038;-73